Time;durP1;ratioP1;P1;durP2;ratioP2;P2;SDS_P1;SDS_P2;PMS_P1;PMS_P2;Temp;Humidity;BMP_temperature;BMP_pressure;BME280_temperature;BME280_humidity;BME280_pressure;Samples;Min_cycle;Max_cycle;Signal;HPM_P1;HPM_P2
2022/05/20 00:00:40;;;;;;;2.60;0.93;;;;;;;17.93;34.52;102124.00;5085908;28;20868;-67
2022/05/20 00:03:08;;;;;;;2.97;1.10;;;;;;;17.93;34.57;102126.69;5085363;28;20465;-67
2022/05/20 00:05:35;;;;;;;3.30;1.00;;;;;;;17.90;34.67;102124.38;5085072;28;20882;-68
2022/05/20 00:08:02;;;;;;;1.83;0.90;;;;;;;17.92;34.79;102121.50;5086129;28;20433;-67
2022/05/20 00:10:29;;;;;;;6.00;1.30;;;;;;;17.92;35.29;102127.69;5085798;28;20505;-67
2022/05/20 00:12:56;;;;;;;1.65;1.00;;;;;;;17.90;35.32;102123.53;5085518;28;20422;-67
2022/05/20 00:15:27;;;;;;;1.30;1.00;;;;;;;17.87;35.59;102130.09;5085581;28;20991;-68
2022/05/20 00:17:55;;;;;;;5.13;1.20;;;;;;;17.83;35.58;102126.09;5085918;28;20496;-67
2022/05/20 00:20:24;;;;;;;2.90;1.20;;;;;;;17.78;35.67;102118.56;5085541;28;21003;-67
2022/05/20 00:22:51;;;;;;;2.25;1.00;;;;;;;17.76;35.81;102123.31;5085511;28;20785;-68
2022/05/20 00:28:08;;;;;;;1.95;0.98;;;;;;;17.77;35.69;102116.06;5085522;28;20487;-67
2022/05/20 00:30:37;;;;;;;4.68;1.20;;;;;;;17.75;35.67;102112.75;5085839;28;20440;-67
2022/05/20 00:34:52;;;;;;;2.10;1.10;;;;;;;17.71;35.58;102109.59;5085103;28;20464;-69
2022/05/20 00:37:19;;;;;;;1.45;0.90;;;;;;;17.65;35.49;102123.75;5054211;28;20418;-68
2022/05/20 00:39:46;;;;;;;1.87;0.90;;;;;;;17.68;35.55;102122.53;5079073;28;20419;-67
2022/05/20 00:42:16;;;;;;;3.65;1.00;;;;;;;17.66;35.50;102125.41;5077817;28;20410;-67
2022/05/20 00:44:43;;;;;;;1.60;0.95;;;;;;;17.64;35.64;102123.94;5071127;28;20968;-68
2022/05/20 00:47:48;;;;;;;3.50;0.90;;;;;;;17.61;35.78;102126.97;5074023;27;20463;-68
2022/05/20 00:50:18;;;;;;;1.67;0.87;;;;;;;17.52;35.94;102129.75;5076032;28;20528;-68
2022/05/20 00:52:49;;;;;;;1.75;1.00;;;;;;;17.47;36.10;102132.13;5081918;28;20505;-67
2022/05/20 00:55:20;;;;;;;2.88;1.02;;;;;;;17.45;36.20;102136.84;5069390;28;20438;-69
2022/05/20 00:59:44;;;;;;;2.10;1.00;;;;;;;17.36;36.66;102140.59;5095772;27;20927;-67
2022/05/20 01:02:17;;;;;;;3.20;0.90;;;;;;;17.34;37.07;102143.47;5058513;28;20507;-67
2022/05/20 01:04:45;;;;;;;2.90;1.00;;;;;;;17.31;37.04;102137.63;5051679;28;20424;-68
2022/05/20 01:07:13;;;;;;;2.60;1.20;;;;;;;17.29;36.79;102137.81;5063081;28;20411;-68
2022/05/20 01:09:40;;;;;;;2.58;1.13;;;;;;;17.31;36.59;102138.44;5056776;28;20798;-68
2022/05/20 01:12:09;;;;;;;3.00;1.30;;;;;;;17.28;36.40;102128.09;5057230;28;20506;-67
2022/05/20 01:16:02;;;;;;;2.58;1.25;;;;;;;17.35;36.33;102139.75;5117854;27;20454;-68
2022/05/20 01:18:32;;;;;;;1.60;0.90;;;;;;;17.34;36.08;102131.88;5106999;28;20503;-67
2022/05/20 01:21:00;;;;;;;2.47;1.00;;;;;;;17.31;36.35;102129.59;5106874;28;20495;-67
2022/05/20 01:23:29;;;;;;;2.60;1.00;;;;;;;17.14;36.57;102132.41;5106947;28;20495;-67
2022/05/20 01:25:59;;;;;;;2.60;1.02;;;;;;;17.16;36.50;102133.03;5106905;28;20408;-67
2022/05/20 01:28:28;;;;;;;2.58;1.13;;;;;;;17.12;36.55;102144.28;5107012;28;20416;-67
2022/05/20 01:30:58;;;;;;;3.50;1.00;;;;;;;17.13;36.93;102135.25;5106406;28;20500;-66
2022/05/20 01:33:30;;;;;;;2.90;1.10;;;;;;;17.05;36.99;102130.78;5090874;28;20836;-68
2022/05/20 01:36:27;;;;;;;2.35;0.95;;;;;;;17.11;37.04;102134.59;5114361;27;20917;-67
2022/05/20 01:38:55;;;;;;;2.72;1.15;;;;;;;17.07;37.09;102135.94;5091049;28;20413;-68
2022/05/20 01:41:29;;;;;;;1.33;0.90;;;;;;;17.09;37.15;102128.59;5102550;28;20500;-67
2022/05/20 01:44:08;;;;;;;2.17;1.13;;;;;;;17.05;37.13;102128.13;5086841;28;20428;-67
2022/05/20 01:46:39;;;;;;;2.97;1.20;;;;;;;16.99;37.13;102118.91;5086406;28;20410;-68
2022/05/20 01:49:25;;;;;;;2.50;1.00;;;;;;;17.00;36.87;102117.91;5087425;28;20884;-67
2022/05/20 01:51:59;;;;;;;2.30;1.00;;;;;;;16.94;37.09;102113.28;5099682;28;20493;-68
2022/05/20 01:54:34;;;;;;;1.45;1.00;;;;;;;16.90;37.26;102121.84;5098428;28;20498;-67
2022/05/20 01:57:09;;;;;;;1.50;1.00;;;;;;;16.88;37.33;102126.53;5089849;28;20414;-67
2022/05/20 01:59:42;;;;;;;2.37;0.90;;;;;;;16.81;37.54;102129.88;5101871;28;20414;-67
2022/05/20 02:02:14;;;;;;;2.95;1.00;;;;;;;16.77;38.16;102125.91;5095249;28;21003;-68
2022/05/20 02:04:45;;;;;;;3.50;1.30;;;;;;;16.74;38.01;102125.41;5092371;28;20994;-67
2022/05/20 02:07:18;;;;;;;2.60;1.10;;;;;;;16.69;38.37;102134.00;5102694;28;20495;-68
2022/05/20 02:09:51;;;;;;;1.60;1.15;;;;;;;16.64;38.78;102131.00;5092488;28;20427;-67
2022/05/20 02:12:23;;;;;;;1.75;1.10;;;;;;;16.65;38.38;102134.50;5104713;28;20957;-67
2022/05/20 02:16:45;;;;;;;3.35;1.10;;;;;;;16.53;39.07;102131.38;5113007;27;20404;-67
2022/05/20 02:19:16;;;;;;;2.77;1.00;;;;;;;16.50;39.13;102118.34;5089553;28;20532;-67
2022/05/20 02:21:49;;;;;;;2.88;1.17;;;;;;;16.50;38.94;102124.53;5100851;28;20514;-67
2022/05/20 02:26:11;;;;;;;4.10;1.45;;;;;;;16.44;39.20;102127.94;5116670;27;20400;-66
2022/05/20 02:28:41;;;;;;;2.30;1.20;;;;;;;16.37;39.34;102134.97;5095180;28;20864;-66
2022/05/20 02:31:14;;;;;;;1.98;1.10;;;;;;;16.36;39.12;102130.63;5089219;28;20497;-67
2022/05/20 02:33:41;;;;;;;2.10;1.08;;;;;;;16.38;39.07;102139.31;5101820;28;20600;-68
2022/05/20 02:36:25;;;;;;;2.70;1.07;;;;;;;16.37;39.12;102141.16;5095891;28;20488;-67
2022/05/20 02:38:52;;;;;;;3.85;1.40;;;;;;;16.35;39.20;102148.53;5091432;28;20500;-66
2022/05/20 02:41:21;;;;;;;3.40;1.38;;;;;;;16.37;38.97;102151.03;5102931;28;20495;-67
2022/05/20 02:43:47;;;;;;;4.47;1.50;;;;;;;16.36;39.11;102152.84;5092616;28;20484;-67
2022/05/20 02:46:15;;;;;;;1.97;1.00;;;;;;;16.28;39.14;102142.19;5105550;28;20434;-67
2022/05/20 02:48:42;;;;;;;2.15;1.20;;;;;;;16.17;39.08;102146.09;5093271;28;20442;-67
2022/05/20 02:51:09;;;;;;;2.30;1.23;;;;;;;16.17;39.05;102148.75;5102577;28;20413;-66
2022/05/20 02:53:36;;;;;;;4.75;1.40;;;;;;;16.14;39.02;102149.09;5090420;28;20412;-67
2022/05/20 02:56:04;;;;;;;3.13;1.13;;;;;;;16.18;39.12;102158.44;5098242;28;21004;-67
2022/05/20 03:04:11;;;;;;;3.42;1.08;;;;;;;16.32;38.90;102169.44;5098652;28;21010;-67
2022/05/20 03:06:38;;;;;;;2.10;1.20;;;;;;;16.35;38.84;102169.09;5099221;28;20488;-67
2022/05/20 03:09:07;;;;;;;2.15;1.20;;;;;;;16.44;38.38;102165.41;5089640;28;20501;-66
2022/05/20 03:11:34;;;;;;;2.28;1.05;;;;;;;16.42;38.48;102167.38;5073564;28;20417;-67
2022/05/20 03:14:04;;;;;;;2.50;0.90;;;;;;;16.51;38.29;102168.19;5098779;28;20427;-67
2022/05/20 03:16:31;;;;;;;2.17;1.10;;;;;;;16.60;38.10;102165.31;5097405;28;20416;-67
2022/05/20 03:18:58;;;;;;;2.53;1.05;;;;;;;16.57;37.76;102152.28;5092285;28;20410;-67
2022/05/20 03:21:25;;;;;;;2.60;1.10;;;;;;;16.75;37.59;102161.91;5089069;28;20421;-67
2022/05/20 03:23:53;;;;;;;2.17;1.00;;;;;;;16.91;37.52;102163.69;5099565;28;20501;-67
2022/05/20 03:26:20;;;;;;;3.20;1.15;;;;;;;17.00;37.19;102166.13;5086947;28;20418;-67
2022/05/20 03:28:47;;;;;;;5.75;1.40;;;;;;;17.11;37.20;102164.91;5099805;28;20440;-67
2022/05/20 03:31:16;;;;;;;3.10;1.15;;;;;;;17.23;37.02;102165.31;5092226;28;20414;-67
2022/05/20 03:33:43;;;;;;;2.90;1.10;;;;;;;17.32;36.83;102169.63;5100870;28;20920;-67
2022/05/20 03:36:11;;;;;;;4.30;1.60;;;;;;;17.50;36.59;102173.81;5097880;28;20496;-69
2022/05/20 03:38:38;;;;;;;3.50;1.20;;;;;;;17.55;36.15;102174.94;5090386;28;20422;-67
2022/05/20 03:41:05;;;;;;;5.43;1.30;;;;;;;17.69;36.13;102172.50;5090212;28;20798;-67
2022/05/20 03:43:33;;;;;;;3.88;1.30;;;;;;;17.81;36.08;102170.19;5090360;28;20556;-70
2022/05/20 03:46:00;;;;;;;5.55;3.30;;;;;;;18.07;35.70;102173.31;5090435;28;20432;-67
2022/05/20 03:48:29;;;;;;;5.40;1.50;;;;;;;18.40;35.22;102182.84;5090026;28;20849;-68
2022/05/20 03:50:57;;;;;;;5.95;1.40;;;;;;;18.66;34.80;102182.38;5089857;28;21081;-68
2022/05/20 03:53:24;;;;;;;3.35;1.13;;;;;;;18.95;34.35;102175.31;5090054;28;20504;-68
2022/05/20 03:55:51;;;;;;;3.08;1.30;;;;;;;19.09;33.79;102177.13;5090156;28;20415;-69
2022/05/20 03:58:18;;;;;;;3.53;1.10;;;;;;;19.43;33.43;102178.28;5088792;28;20486;-71
2022/05/20 04:03:31;;;;;;;5.07;1.90;;;;;;;20.09;32.50;102187.91;5089739;28;20498;-67
2022/05/20 04:05:58;;;;;;;2.22;1.05;;;;;;;20.52;31.84;102182.34;5089216;28;20435;-67
2022/05/20 04:08:27;;;;;;;3.22;1.20;;;;;;;20.93;31.04;102176.91;5090091;28;20437;-67
2022/05/20 04:10:54;;;;;;;5.95;1.73;;;;;;;21.36;30.52;102178.47;5089502;28;20517;-70
2022/05/20 04:13:21;;;;;;;3.72;1.23;;;;;;;21.88;29.83;102184.09;5089030;28;20492;-68
2022/05/20 04:15:49;;;;;;;4.47;1.43;;;;;;;22.39;29.16;102193.34;5087531;28;20915;-68
2022/05/20 04:18:16;;;;;;;5.90;1.38;;;;;;;22.77;28.72;102190.69;5089577;28;20433;-69
2022/05/20 04:20:45;;;;;;;5.45;1.65;;;;;;;23.25;27.65;102189.44;5089503;28;20493;-67
2022/05/20 04:23:14;;;;;;;5.63;1.43;;;;;;;23.72;27.35;102195.28;5089599;28;20487;-67
2022/05/20 04:25:41;;;;;;;5.75;1.55;;;;;;;24.28;26.65;102189.97;5090258;28;20467;-68
2022/05/20 04:28:08;;;;;;;3.83;1.60;;;;;;;24.84;25.90;102185.34;5088116;28;20488;-68
2022/05/20 04:30:35;;;;;;;2.30;1.35;;;;;;;25.42;25.31;102176.56;5088186;28;20431;-71
2022/05/20 04:33:02;;;;;;;6.45;1.67;;;;;;;26.01;24.41;102179.31;5088567;28;20416;-68
2022/05/20 04:35:29;;;;;;;5.47;1.80;;;;;;;26.57;23.72;102185.09;5089164;28;20423;-68
2022/05/20 04:37:58;;;;;;;5.68;2.55;;;;;;;27.12;23.39;102175.53;5089795;28;20922;-68
2022/05/20 04:40:25;;;;;;;5.63;1.90;;;;;;;27.78;22.82;102177.69;5087684;28;20409;-68
2022/05/20 04:48:24;;;;;;;5.75;1.70;;;;;;;30.03;20.12;102175.63;5090088;28;20409;-68
2022/05/20 04:50:51;;;;;;;2.97;1.50;;;;;;;30.57;19.79;102185.44;5091362;28;20543;-67
2022/05/20 04:56:00;;;;;;;4.63;1.83;;;;;;;31.44;18.79;102180.06;5089062;28;20484;-68
2022/05/20 04:58:26;;;;;;;4.78;1.55;;;;;;;31.41;18.38;102186.09;5090120;28;20488;-70
2022/05/20 05:00:55;;;;;;;2.63;1.60;;;;;;;31.74;18.32;102181.94;5090119;28;20413;-68
2022/05/20 05:03:22;;;;;;;8.75;2.22;;;;;;;31.99;18.22;102177.47;5090036;28;20447;-69
2022/05/20 05:05:49;;;;;;;2.72;1.70;;;;;;;32.18;17.86;102177.72;5089892;28;20429;-69
2022/05/20 05:08:17;;;;;;;3.10;1.60;;;;;;;32.54;17.46;102172.06;5090580;28;20412;-68
2022/05/20 05:10:46;;;;;;;5.18;1.67;;;;;;;32.61;16.96;102177.25;5090773;28;20467;-67
2022/05/20 05:13:14;;;;;;;8.27;1.80;;;;;;;33.00;17.27;102176.44;5090599;28;20401;-68
2022/05/20 05:15:44;;;;;;;6.75;1.85;;;;;;;33.03;17.21;102176.66;5090584;28;20418;-68
2022/05/20 05:18:12;;;;;;;2.60;1.60;;;;;;;33.14;16.97;102164.50;5090435;28;20431;-69
2022/05/20 05:20:43;;;;;;;3.60;1.65;;;;;;;33.04;17.32;102169.25;5090444;28;20413;-69
2022/05/20 05:23:10;;;;;;;3.40;2.00;;;;;;;33.35;16.61;102172.59;5090065;28;20417;-68
2022/05/20 05:25:37;;;;;;;3.70;1.92;;;;;;;33.55;16.31;102176.22;5089478;28;20502;-68
2022/05/20 05:28:07;;;;;;;6.20;2.20;;;;;;;33.56;16.40;102167.69;5088919;28;20488;-69
2022/05/20 05:30:35;;;;;;;5.90;2.03;;;;;;;33.71;16.14;102164.81;5089422;28;20437;-69
2022/05/20 05:33:02;;;;;;;6.78;2.50;;;;;;;33.82;15.75;102164.72;5090118;28;20487;-68
2022/05/20 05:35:32;;;;;;;4.57;2.63;;;;;;;33.87;15.72;102167.38;5090466;28;20488;-68
2022/05/20 05:37:59;;;;;;;3.27;1.97;;;;;;;34.07;15.45;102156.13;5090116;28;20411;-68
2022/05/20 05:40:30;;;;;;;6.75;2.60;;;;;;;34.62;15.13;102165.84;5090437;28;20452;-68
2022/05/20 05:42:59;;;;;;;3.70;1.90;;;;;;;34.77;15.17;102165.66;5090436;28;20492;-67
2022/05/20 05:45:30;;;;;;;8.33;2.00;;;;;;;35.11;15.21;102166.47;5089970;28;20429;-68
2022/05/20 05:48:00;;;;;;;2.95;1.65;;;;;;;35.25;14.79;102170.13;5090285;28;20416;-68
2022/05/20 05:50:28;;;;;;;2.70;1.60;;;;;;;35.67;14.60;102159.94;5089919;28;20409;-68
2022/05/20 05:52:56;;;;;;;5.18;1.70;;;;;;;35.56;14.72;102166.78;5090194;28;20488;-68
2022/05/20 05:55:23;;;;;;;2.72;1.30;;;;;;;35.63;15.03;102164.44;5090284;28;20408;-68
2022/05/20 05:57:50;;;;;;;8.80;1.75;;;;;;;36.07;14.49;102164.97;5089922;28;20480;-68
2022/05/20 06:00:18;;;;;;;4.00;1.63;;;;;;;36.27;14.82;102164.56;5089940;28;20480;-68
2022/05/20 06:02:46;;;;;;;2.85;1.85;;;;;;;36.77;14.18;102168.41;5090068;28;20496;-68
2022/05/20 06:05:13;;;;;;;4.43;1.60;;;;;;;36.95;13.97;102164.63;5089949;28;20433;-68
2022/05/20 06:07:40;;;;;;;2.33;1.15;;;;;;;36.92;14.18;102160.56;5090401;28;20849;-69
2022/05/20 06:10:07;;;;;;;4.03;1.48;;;;;;;37.30;13.91;102154.63;5089488;28;20405;-68
2022/05/20 06:12:34;;;;;;;4.25;1.60;;;;;;;37.62;13.68;102154.63;5089749;28;20405;-68
2022/05/20 06:15:04;;;;;;;3.10;1.20;;;;;;;37.94;13.49;102150.66;5089286;28;20456;-68
2022/05/20 06:17:31;;;;;;;2.77;1.40;;;;;;;37.55;14.02;102162.56;5087670;28;20489;-69
2022/05/20 06:20:01;;;;;;;3.25;1.45;;;;;;;37.90;13.78;102155.19;5088696;28;20409;-69
2022/05/20 06:22:28;;;;;;;2.00;1.27;;;;;;;37.76;13.60;102154.50;5089214;28;20405;-66
2022/05/20 06:24:55;;;;;;;5.65;1.60;;;;;;;37.59;13.69;102152.47;5088256;28;20500;-68
2022/05/20 06:27:22;;;;;;;2.45;1.20;;;;;;;37.49;13.82;102159.09;5087947;28;20772;-68
2022/05/20 06:29:50;;;;;;;4.25;2.00;;;;;;;37.84;13.61;102159.25;5088534;28;20409;-67
2022/05/20 06:32:18;;;;;;;13.05;2.30;;;;;;;38.00;13.58;102148.56;5089480;28;20413;-68
2022/05/20 06:40:17;;;;;;;2.90;1.85;;;;;;;37.71;13.37;102152.72;5089510;28;20412;-67
2022/05/20 06:42:44;;;;;;;3.23;1.40;;;;;;;37.59;14.02;102150.50;5089677;28;20492;-67
2022/05/20 06:45:12;;;;;;;3.85;1.30;;;;;;;37.11;13.63;102135.50;5089511;28;20496;-68
2022/05/20 06:47:39;;;;;;;3.73;1.30;;;;;;;36.58;14.41;102135.44;5089591;28;21232;-67
2022/05/20 06:50:08;;;;;;;4.40;1.70;;;;;;;36.07;14.84;102142.88;5089313;28;20948;-69
2022/05/20 06:52:36;;;;;;;4.60;1.47;;;;;;;36.05;15.37;102142.38;5089299;28;20409;-67
2022/05/20 06:55:04;;;;;;;3.63;1.65;;;;;;;35.89;14.94;102136.38;5089677;28;20484;-66
2022/05/20 06:57:32;;;;;;;4.40;1.47;;;;;;;35.40;15.26;102145.03;5089595;28;20531;-66
2022/05/20 06:59:59;;;;;;;3.80;1.38;;;;;;;35.35;14.82;102136.88;5089241;28;20500;-68
2022/05/20 07:02:26;;;;;;;2.27;1.03;;;;;;;34.51;15.22;102142.34;5089599;28;20488;-68
2022/05/20 07:04:53;;;;;;;3.05;1.30;;;;;;;34.66;15.02;102140.19;5089400;28;20437;-67
2022/05/20 07:07:19;;;;;;;2.75;1.50;;;;;;;34.33;15.29;102136.53;5089373;28;20457;-68
2022/05/20 07:09:48;;;;;;;1.87;1.00;;;;;;;34.22;15.40;102140.56;5089130;28;20985;-66
2022/05/20 07:12:15;;;;;;;5.07;1.80;;;;;;;33.82;15.68;102138.00;5092201;28;20405;-67
2022/05/20 07:14:42;;;;;;;6.32;1.70;;;;;;;33.52;15.80;102139.94;5092812;28;20496;-68
2022/05/20 07:17:09;;;;;;;4.50;1.30;;;;;;;33.14;16.69;102144.47;5093394;28;20513;-66
2022/05/20 07:19:39;;;;;;;2.70;1.23;;;;;;;32.77;16.15;102134.84;5092629;28;20405;-66
2022/05/20 07:22:06;;;;;;;4.90;1.30;;;;;;;32.37;16.19;102133.97;5092533;28;20488;-66
2022/05/20 07:24:33;;;;;;;4.00;1.17;;;;;;;32.38;16.19;102138.38;5092316;28;20938;-71
2022/05/20 07:27:01;;;;;;;11.65;1.70;;;;;;;32.27;17.01;102134.03;5092074;28;20508;-71
2022/05/20 07:29:28;;;;;;;3.03;1.13;;;;;;;31.98;17.90;102127.31;5092098;28;20409;-68
2022/05/20 07:31:55;;;;;;;28.90;2.83;;;;;;;32.03;16.78;102126.44;5092300;28;20504;-67
2022/05/20 07:34:22;;;;;;;2.67;1.23;;;;;;;32.05;16.30;102131.69;5092059;28;20496;-68
2022/05/20 07:36:49;;;;;;;1.88;1.20;;;;;;;31.98;15.59;102129.19;5092180;28;20492;-69
2022/05/20 07:39:16;;;;;;;2.30;1.25;;;;;;;32.04;15.90;102125.38;5092018;28;20920;-69
2022/05/20 07:41:43;;;;;;;1.70;1.02;;;;;;;31.93;15.81;102116.34;5091990;28;20487;-69
2022/05/20 07:44:11;;;;;;;3.17;1.10;;;;;;;31.73;16.13;102111.78;5092406;28;20977;-69
2022/05/20 07:46:38;;;;;;;2.30;1.30;;;;;;;31.69;15.49;102113.41;5092348;28;20515;-69
2022/05/20 07:49:05;;;;;;;4.00;1.30;;;;;;;31.85;14.62;102113.38;5092139;28;20969;-69
2022/05/20 07:51:34;;;;;;;1.70;1.00;;;;;;;31.80;13.85;102116.94;5092569;28;20417;-69
2022/05/20 07:54:06;;;;;;;1.55;0.73;;;;;;;31.68;13.71;102119.19;5092135;28;20409;-70
2022/05/20 07:56:36;;;;;;;1.67;0.90;;;;;;;31.72;13.04;102106.56;5092080;28;20500;-69
2022/05/20 07:59:07;;;;;;;1.85;0.98;;;;;;;31.66;13.65;102108.50;5092388;28;20507;-67
2022/05/20 08:01:38;;;;;;;2.85;1.17;;;;;;;31.37;14.67;102109.09;5092034;28;20475;-73
2022/05/20 08:06:53;;;;;;;3.03;1.30;;;;;;;30.96;14.91;102100.91;5092209;28;20428;-73
2022/05/20 08:09:20;;;;;;;1.88;0.73;;;;;;;30.90;14.78;102096.50;5091938;28;20413;-74
2022/05/20 08:11:47;;;;;;;2.35;0.82;;;;;;;30.98;14.93;102100.66;5091360;28;20851;-75
2022/05/20 08:14:14;;;;;;;2.97;1.20;;;;;;;31.30;15.17;102094.03;5092332;28;20501;-74
2022/05/20 08:16:42;;;;;;;3.45;1.20;;;;;;;31.43;15.19;102097.00;5091596;28;20536;-74
2022/05/20 08:19:09;;;;;;;2.00;0.90;;;;;;;30.90;15.08;102091.03;5090504;28;20409;-74
2022/05/20 08:21:37;;;;;;;2.40;1.50;;;;;;;30.49;15.39;102096.47;5091017;28;20791;-74
2022/05/20 08:24:05;;;;;;;5.22;1.70;;;;;;;30.47;15.72;102091.28;5091391;28;20409;-75
2022/05/20 08:26:32;;;;;;;2.33;0.90;;;;;;;30.44;15.79;102097.28;5091407;28;20859;-74
2022/05/20 08:28:59;;;;;;;3.50;1.10;;;;;;;30.59;15.59;102090.19;5091446;28;20501;-74
2022/05/20 08:31:26;;;;;;;2.60;1.02;;;;;;;30.60;15.26;102091.84;5091552;28;20417;-74
2022/05/20 08:33:54;;;;;;;2.17;1.00;;;;;;;30.09;15.95;102092.53;5091745;28;20495;-75
2022/05/20 08:36:22;;;;;;;1.70;1.02;;;;;;;30.64;15.96;102093.75;5091277;28;20489;-74
2022/05/20 08:38:49;;;;;;;2.90;1.40;;;;;;;30.78;15.28;102096.78;5091357;28;20867;-75
2022/05/20 08:41:20;;;;;;;2.80;1.30;;;;;;;30.31;15.68;102090.38;5091156;28;20445;-74
2022/05/20 08:43:49;;;;;;;5.80;1.80;;;;;;;30.50;16.03;102089.91;5091131;28;20962;-74
2022/05/20 08:46:19;;;;;;;3.33;1.02;;;;;;;30.65;15.81;102086.38;5091016;28;21023;-73
2022/05/20 08:48:50;;;;;;;2.05;0.93;;;;;;;30.50;15.33;102098.09;5091331;28;20496;-74
2022/05/20 08:51:19;;;;;;;2.45;1.10;;;;;;;30.61;15.08;102094.31;5091011;28;20458;-74
2022/05/20 08:53:47;;;;;;;2.23;1.10;;;;;;;30.59;15.57;102088.25;5090970;28;20977;-74
2022/05/20 08:56:20;;;;;;;4.13;1.77;;;;;;;30.83;15.80;102090.50;5091458;28;20493;-74
2022/05/20 08:58:52;;;;;;;1.00;0.90;;;;;;;30.43;15.34;102095.66;5090886;28;20941;-74
2022/05/20 09:01:27;;;;;;;1.33;0.98;;;;;;;30.27;15.60;102085.72;5090870;28;20873;-74
2022/05/20 09:03:54;;;;;;;2.20;1.00;;;;;;;30.41;15.37;102084.13;5091141;28;20416;-74
2022/05/20 09:06:22;;;;;;;3.10;1.00;;;;;;;30.29;15.59;102081.63;5090685;28;20518;-74
2022/05/20 09:09:16;;;;;;;3.30;1.10;;;;;;;30.46;15.86;102072.38;5091553;27;20406;-75
2022/05/20 09:11:44;;;;;;;3.75;1.13;;;;;;;30.64;15.26;102071.84;5086596;28;20509;-75
2022/05/20 09:17:08;;;;;;;1.58;1.13;;;;;;;30.31;15.95;102062.22;5078205;28;20412;-74
2022/05/20 09:19:35;;;;;;;2.08;1.02;;;;;;;30.28;16.47;102062.75;5086868;28;20942;-76
2022/05/20 09:22:06;;;;;;;2.25;1.23;;;;;;;30.38;16.34;102065.53;5088293;28;20501;-75
2022/05/20 09:24:39;;;;;;;2.90;1.00;;;;;;;30.44;16.19;102049.94;5086752;28;20951;-74
2022/05/20 09:27:09;;;;;;;1.33;0.93;;;;;;;30.17;16.15;102048.22;5081400;28;20499;-74
2022/05/20 09:29:40;;;;;;;4.40;1.25;;;;;;;30.26;16.01;102051.25;5073291;28;20411;-74
2022/05/20 09:32:16;;;;;;;1.40;1.00;;;;;;;30.42;16.05;102047.47;5083512;28;20418;-75
2022/05/20 09:34:44;;;;;;;1.65;1.00;;;;;;;30.37;15.90;102036.53;5077596;28;20418;-74
2022/05/20 09:37:20;;;;;;;3.00;1.20;;;;;;;30.09;15.92;102038.66;5086149;28;20413;-75
2022/05/20 09:39:51;;;;;;;3.65;1.10;;;;;;;30.23;15.92;102040.84;5086258;28;20489;-74
2022/05/20 09:42:21;;;;;;;5.23;1.50;;;;;;;30.11;16.11;102035.66;5086455;28;20493;-74
2022/05/20 09:44:51;;;;;;;2.20;1.20;;;;;;;30.37;16.77;102022.03;5085920;28;20418;-74
2022/05/20 09:47:26;;;;;;;2.53;0.98;;;;;;;30.38;16.45;102029.97;5085693;28;20574;-75
2022/05/20 09:49:56;;;;;;;1.65;1.05;;;;;;;30.52;15.03;102024.75;5073393;28;20866;-74
2022/05/20 09:52:35;;;;;;;2.00;1.00;;;;;;;30.33;15.68;102023.66;5086163;28;20406;-74
2022/05/20 09:55:07;;;;;;;2.60;1.13;;;;;;;30.53;16.37;102017.41;5086024;28;20490;-74
2022/05/20 09:57:39;;;;;;;1.92;1.00;;;;;;;30.43;15.94;102012.72;5086387;28;20410;-74
2022/05/20 10:00:11;;;;;;;1.53;1.10;;;;;;;30.59;16.18;102019.84;5085961;28;20519;-74
2022/05/20 10:02:45;;;;;;;3.42;2.20;;;;;;;30.53;16.62;102015.47;5086253;28;20616;-74
2022/05/20 10:05:19;;;;;;;3.20;1.50;;;;;;;30.46;16.58;102012.19;5085808;28;20796;-75
2022/05/20 10:07:59;;;;;;;1.38;0.82;;;;;;;30.33;17.37;102008.06;5086163;28;20430;-75
2022/05/20 10:10:36;;;;;;;2.90;1.35;;;;;;;30.58;17.18;102007.28;5083907;28;20908;-75
2022/05/20 10:13:08;;;;;;;1.10;1.00;;;;;;;30.70;16.81;102006.97;5085699;28;20468;-75
2022/05/20 10:15:40;;;;;;;2.58;1.38;;;;;;;30.47;16.97;102005.63;5085490;28;20501;-74
2022/05/20 10:18:16;;;;;;;8.07;7.28;;;;;;;30.29;16.95;102001.50;5085348;28;20501;-75
2022/05/20 10:21:07;;;;;;;1.75;0.95;;;;;;;30.35;16.22;101991.41;5062898;28;20420;-73
2022/05/20 10:23:38;;;;;;;4.60;1.13;;;;;;;30.27;16.19;101987.25;5052189;28;20452;-75
2022/05/20 10:26:12;;;;;;;1.35;0.90;;;;;;;30.18;16.70;101994.34;5052353;28;20492;-74
2022/05/20 10:34:28;;;;;;;2.40;0.90;;;;;;;30.27;16.72;101979.88;5071011;28;20406;-74
2022/05/20 10:37:01;;;;;;;1.60;1.00;;;;;;;30.26;16.28;101985.63;5060357;28;20480;-73
2022/05/20 10:40:11;;;;;;;1.63;0.90;;;;;;;30.37;16.07;101968.13;5071198;28;20415;-75
2022/05/20 10:43:00;;;;;;;2.72;1.20;;;;;;;30.52;16.41;101969.22;5072118;28;20499;-74
2022/05/20 10:48:50;;;;;;;1.25;0.90;;;;;;;30.27;16.11;101959.88;5067525;28;20430;-75
2022/05/20 10:51:30;;;;;;;3.67;1.50;;;;;;;30.52;16.78;101950.88;5039075;28;20493;-74
2022/05/20 10:54:17;;;;;;;1.75;1.10;;;;;;;30.43;16.53;101958.00;5071802;28;20490;-74
2022/05/20 10:57:04;;;;;;;1.98;0.90;;;;;;;30.20;16.92;101951.97;5071654;28;20478;-74
2022/05/20 10:59:50;;;;;;;2.70;0.80;;;;;;;30.39;16.05;101944.06;5073869;28;20490;-74
2022/05/20 11:02:37;;;;;;;2.40;0.90;;;;;;;29.70;16.06;101932.44;5071342;28;20425;-74
2022/05/20 11:05:24;;;;;;;2.20;1.30;;;;;;;29.67;16.40;101929.44;5071670;28;20502;-74
2022/05/20 11:08:10;;;;;;;2.83;1.10;;;;;;;29.82;17.59;101918.56;5070904;28;20983;-74
2022/05/20 11:11:00;;;;;;;2.10;1.30;;;;;;;30.06;19.64;101924.34;5071534;28;20435;-74
2022/05/20 11:13:43;;;;;;;1.85;0.90;;;;;;;29.70;18.05;101913.31;5071518;28;20492;-74
2022/05/20 11:16:33;;;;;;;2.78;0.70;;;;;;;29.59;18.10;101913.56;5071207;28;20992;-74
2022/05/20 11:19:20;;;;;;;3.47;1.00;;;;;;;29.87;18.06;101912.28;5071217;28;20482;-74
2022/05/20 11:22:12;;;;;;;1.88;0.90;;;;;;;29.85;18.22;101909.81;5071136;28;20847;-73
2022/05/20 11:25:06;;;;;;;1.30;0.80;;;;;;;29.94;17.55;101896.44;5071987;28;21249;-74
2022/05/20 11:27:48;;;;;;;2.63;0.80;;;;;;;30.06;17.15;101879.78;5071270;28;20486;-74
2022/05/20 11:30:30;;;;;;;1.33;0.80;;;;;;;30.04;17.52;101881.97;5070392;28;20498;-74
2022/05/20 11:33:13;;;;;;;1.83;0.80;;;;;;;30.10;17.27;101878.94;5070726;28;20502;-74
2022/05/20 11:36:03;;;;;;;1.00;0.90;;;;;;;30.17;17.92;101886.06;5070757;28;20502;-73
2022/05/20 11:39:02;;;;;;;2.25;0.82;;;;;;;29.82;16.46;101874.00;5071011;28;20464;-73
2022/05/20 11:41:36;;;;;;;1.80;0.93;;;;;;;29.89;16.75;101889.06;5070693;28;20435;-73
2022/05/20 11:44:32;;;;;;;2.97;0.95;;;;;;;29.98;16.68;101874.84;5070632;28;20497;-74
2022/05/20 11:47:26;;;;;;;2.28;0.95;;;;;;;30.17;16.88;101873.19;5069313;28;20508;-74
2022/05/20 11:50:11;;;;;;;2.08;0.80;;;;;;;30.19;16.53;101870.19;5070348;28;20430;-74
2022/05/20 11:53:06;;;;;;;0.95;0.80;;;;;;;30.07;16.60;101865.00;5070330;28;20983;-74
2022/05/20 11:55:37;;;;;;;1.90;0.77;;;;;;;29.98;16.62;101863.91;5056992;28;21000;-73
2022/05/20 11:58:08;;;;;;;1.87;0.87;;;;;;;30.02;16.78;101859.53;5070327;28;20940;-75
2022/05/20 12:00:40;;;;;;;1.45;0.82;;;;;;;30.19;16.51;101854.59;5070679;28;20410;-74
2022/05/20 12:03:11;;;;;;;1.35;0.70;;;;;;;30.15;16.54;101847.22;5070642;28;20499;-75
2022/05/20 12:05:43;;;;;;;1.83;0.80;;;;;;;30.16;16.92;101846.13;5070615;28;20445;-75
2022/05/20 12:08:48;;;;;;;1.85;0.70;;;;;;;29.56;17.06;101846.63;5070207;28;20518;-74
2022/05/20 12:11:22;;;;;;;0.80;0.80;;;;;;;29.71;17.45;101840.34;5070509;28;20486;-74
2022/05/20 12:14:02;;;;;;;1.75;0.80;;;;;;;29.95;17.66;101837.94;5069916;28;20497;-75
2022/05/20 12:16:29;;;;;;;1.77;1.00;;;;;;;30.11;18.35;101836.03;5069984;28;20498;-75
2022/05/20 12:24:37;;;;;;;1.75;0.90;;;;;;;29.94;17.55;101814.41;5069927;28;20410;-74
2022/05/20 12:27:11;;;;;;;1.20;0.90;;;;;;;29.86;18.14;101818.53;5069651;28;20499;-74
2022/05/20 12:29:59;;;;;;;2.50;1.15;;;;;;;30.16;18.30;101816.88;5069732;28;20880;-74
2022/05/20 12:32:45;;;;;;;1.83;0.77;;;;;;;30.20;18.43;101811.69;5069827;28;20403;-74
2022/05/20 12:35:16;;;;;;;2.17;1.10;;;;;;;30.11;18.59;101814.16;5070997;28;20493;-74
2022/05/20 12:37:59;;;;;;;0.90;0.70;;;;;;;30.05;17.70;101807.88;5072238;28;20860;-74